Time,TemperatureF,DewpointF,PressureIn,WindDirection,WindDirectionDegrees,WindSpeedMPH,WindSpeedGustMPH,Humidity,HourlyPrecipIn,Conditions,Clouds,dailyrainin,SoftwareType,DateUTC
2013-02-23 00:03:00,47.4,16.0,29.78,North,357,0.0,-999.0,28,-99.99,,,0.00,weatherlink.com 1.10,2013-02-23 07:03:00,
2013-02-23 00:18:00,47.6,18.0,29.78,North,357,0.0,-999.0,31,-99.99,,,0.00,weatherlink.com 1.10,2013-02-23 07:18:00,
2013-02-23 00:33:00,46.6,18.0,29.78,North,359,0.0,-999.0,32,-99.99,,,0.00,weatherlink.com 1.10,2013-02-23 07:33:00,
2013-02-23 00:48:00,45.6,16.0,29.78,SSW,195,0.0,-999.0,31,-99.99,,,0.00,weatherlink.com 1.10,2013-02-23 07:48:00,
2013-02-23 01:03:00,45.0,17.0,29.78,South,171,0.0,-999.0,32,-99.99,,,0.00,weatherlink.com 1.10,2013-02-23 08:03:00,
2013-02-23 01:18:00,44.7,17.0,29.77,South,189,0.0,-999.0,33,-99.99,,,0.00,weatherlink.com 1.10,2013-02-23 08:18:00,
2013-02-23 01:33:00,45.3,18.0,29.78,South,175,0.0,-999.0,33,-99.99,,,0.00,weatherlink.com 1.10,2013-02-23 08:33:00,
2013-02-23 01:48:00,45.4,16.0,29.77,South,176,0.0,-999.0,31,-99.99,,,0.00,weatherlink.com 1.10,2013-02-23 08:48:00,
2013-02-23 02:03:00,45.4,17.0,29.77,South,176,0.0,-999.0,32,-99.99,,,0.00,weatherlink.com 1.10,2013-02-23 09:03:00,
2013-02-23 02:18:00,45.3,17.0,29.77,North,357,0.0,-999.0,32,-99.99,,,0.00,weatherlink.com 1.10,2013-02-23 09:18:00,
2013-02-23 02:33:00,45.4,16.0,29.76,North,359,0.0,-999.0,31,-99.99,,,0.00,weatherlink.com 1.10,2013-02-23 09:33:00,
2013-02-23 02:48:00,45.6,16.0,29.75,North,350,0.0,-999.0,31,-99.99,,,0.00,weatherlink.com 1.10,2013-02-23 09:48:00,
2013-02-23 03:03:00,45.7,16.0,29.74,NNW,346,0.0,-999.0,31,-99.99,,,0.00,weatherlink.com 1.10,2013-02-23 10:03:00,
2013-02-23 03:18:00,45.4,16.0,29.73,NNW,339,0.0,-999.0,31,-99.99,,,0.00,weatherlink.com 1.10,2013-02-23 10:18:00,
2013-02-23 03:33:00,45.0,17.0,29.73,NNW,342,0.0,-999.0,32,-99.99,,,0.00,weatherlink.com 1.10,2013-02-23 10:33:00,
2013-02-23 03:48:00,44.5,17.0,29.73,NNW,343,0.0,-999.0,33,-99.99,,,0.00,weatherlink.com 1.10,2013-02-23 10:48:00,
2013-02-23 04:03:00,44.0,16.0,29.72,NNW,344,0.0,-999.0,33,-99.99,,,0.00,weatherlink.com 1.10,2013-02-23 11:03:00,
2013-02-23 04:18:00,44.2,17.0,29.72,NNW,343,0.0,-999.0,33,-99.99,,,0.00,weatherlink.com 1.10,2013-02-23 11:18:00,
2013-02-23 04:33:00,44.4,17.0,29.71,North,359,0.0,-999.0,33,-99.99,,,0.00,weatherlink.com 1.10,2013-02-23 11:33:00,
2013-02-23 04:48:00,44.2,17.0,29.71,North,359,0.0,-999.0,33,-99.99,,,0.00,weatherlink.com 1.10,2013-02-23 11:48:00,
2013-02-23 05:03:00,44.5,16.0,29.71,East,79,0.0,-999.0,32,-99.99,,,0.00,weatherlink.com 1.10,2013-02-23 12:03:00,
2013-02-23 05:18:00,44.4,16.0,29.71,North,357,0.0,-999.0,32,-99.99,,,0.00,weatherlink.com 1.10,2013-02-23 12:18:00,
2013-02-23 05:33:00,44.1,17.0,29.71,North,359,0.0,-999.0,33,-99.99,,,0.00,weatherlink.com 1.10,2013-02-23 12:33:00,
2013-02-23 05:48:00,44.1,17.0,29.71,North,359,0.0,-999.0,33,-99.99,,,0.00,weatherlink.com 1.10,2013-02-23 12:48:00,
2013-02-23 06:03:00,43.8,17.0,29.71,WSW,250,0.0,-999.0,34,-99.99,,,0.00,weatherlink.com 1.10,2013-02-23 13:03:00,
2013-02-23 06:18:00,43.4,17.0,29.71,West,274,0.0,-999.0,34,-99.99,,,0.00,weatherlink.com 1.10,2013-02-23 13:18:00,
2013-02-23 06:33:00,43.5,17.0,29.71,North,357,0.0,-999.0,34,-99.99,,,0.00,weatherlink.com 1.10,2013-02-23 13:33:00,
2013-02-23 06:48:00,43.1,17.0,29.70,North,359,0.0,-999.0,35,-99.99,,,0.00,weatherlink.com 1.10,2013-02-23 13:48:00,
2013-02-23 07:03:00,42.3,17.0,29.71,North,359,0.0,-999.0,36,-99.99,,,0.00,weatherlink.com 1.10,2013-02-23 14:03:00,
2013-02-23 07:18:00,42.5,17.0,29.71,WSW,246,0.0,-999.0,36,-99.99,,,0.00,weatherlink.com 1.10,2013-02-23 14:18:00,
2013-02-23 07:33:00,42.3,17.0,29.71,SSE,165,0.0,-999.0,36,-99.99,,,0.00,weatherlink.com 1.10,2013-02-23 14:33:00,
2013-02-23 07:48:00,42.3,18.0,29.72,South,191,0.0,-999.0,37,-99.99,,,0.00,weatherlink.com 1.10,2013-02-23 14:48:00,
2013-02-23 08:03:00,42.6,18.0,29.72,SW,216,0.0,-999.0,37,-99.99,,,0.00,weatherlink.com 1.10,2013-02-23 15:03:00,
2013-02-23 08:18:00,44.4,18.0,29.72,North,359,0.0,-999.0,35,-99.99,,,0.00,weatherlink.com 1.10,2013-02-23 15:18:00,
2013-02-23 08:33:00,47.2,18.0,29.72,WSW,237,0.0,-999.0,31,-99.99,,,0.00,weatherlink.com 1.10,2013-02-23 15:33:00,
2013-02-23 08:48:00,52.4,18.0,29.72,WSW,241,0.0,-999.0,26,-99.99,,,0.00,weatherlink.com 1.10,2013-02-23 15:48:00,
2013-02-23 09:03:00,56.1,20.0,29.72,North,359,0.0,-999.0,24,-99.99,,,0.00,weatherlink.com 1.10,2013-02-23 16:03:00,
2013-02-23 09:19:00,59.0,20.0,29.72,East,79,0.0,-999.0,22,-99.99,,,0.00,weatherlink.com 1.10,2013-02-23 16:19:00,
2013-02-23 09:34:00,61.4,20.0,29.71,North,349,0.0,-999.0,20,-99.99,,,0.00,weatherlink.com 1.10,2013-02-23 16:34:00,
2013-02-23 09:49:00,62.5,17.0,29.70,North,359,0.0,-999.0,17,-99.99,,,0.00,weatherlink.com 1.10,2013-02-23 16:49:00,
2013-02-23 10:04:00,64.3,17.0,29.69,North,359,0.0,-999.0,16,-99.99,,,0.00,weatherlink.com 1.10,2013-02-23 17:04:00,
2013-02-23 10:19:00,65.8,17.0,29.69,North,357,0.0,-999.0,15,-99.99,,,0.00,weatherlink.com 1.10,2013-02-23 17:19:00,
2013-02-23 10:34:00,66.3,16.0,29.68,NNW,337,0.0,-999.0,14,-99.99,,,0.00,weatherlink.com 1.10,2013-02-23 17:34:00,
2013-02-23 10:49:00,67.4,20.0,29.68,WSW,251,2.0,-999.0,16,-99.99,,,0.00,weatherlink.com 1.10,2013-02-23 17:49:00,
2013-02-23 11:04:00,66.6,20.0,29.68,North,357,3.0,-999.0,17,-99.99,,,0.00,weatherlink.com 1.10,2013-02-23 18:04:00,
2013-02-23 11:19:00,67.4,18.0,29.69,North,359,1.0,-999.0,15,-99.99,,,0.00,weatherlink.com 1.10,2013-02-23 18:19:00,
2013-02-23 11:34:00,67.9,20.0,29.68,North,359,0.0,-999.0,16,-99.99,,,0.00,weatherlink.com 1.10,2013-02-23 18:34:00,
2013-02-23 11:49:00,67.9,21.0,29.68,North,357,2.0,-999.0,17,-99.99,,,0.00,weatherlink.com 1.10,2013-02-23 18:49:00,
2013-02-23 12:04:00,67.4,21.0,29.67,North,357,1.0,-999.0,17,-99.99,,,0.00,weatherlink.com 1.10,2013-02-23 19:04:00,
2013-02-23 12:19:00,67.9,18.0,29.67,North,357,0.0,-999.0,15,-99.99,,,0.00,weatherlink.com 1.10,2013-02-23 19:19:00,
2013-02-23 12:34:00,69.6,18.0,29.66,North,359,0.0,-999.0,14,-99.99,,,0.00,weatherlink.com 1.10,2013-02-23 19:34:00,
2013-02-23 12:49:00,70.1,15.0,29.64,North,359,4.0,-999.0,12,-99.99,,,0.00,weatherlink.com 1.10,2013-02-23 19:49:00,
2013-02-23 13:04:00,70.0,15.0,29.62,North,353,0.0,-999.0,12,-99.99,,,0.00,weatherlink.com 1.10,2013-02-23 20:04:00,
2013-02-23 13:19:00,70.5,15.0,29.60,North,359,3.0,-999.0,12,-99.99,,,0.00,weatherlink.com 1.10,2013-02-23 20:19:00,
2013-02-23 13:34:00,70.8,16.0,29.57,North,359,2.0,-999.0,12,-99.99,,,0.00,weatherlink.com 1.10,2013-02-23 20:34:00,
2013-02-23 13:49:00,70.7,16.0,29.56,North,350,5.0,-999.0,12,-99.99,,,0.00,weatherlink.com 1.10,2013-02-23 20:49:00,
2013-02-23 14:04:00,70.5,15.0,29.56,North,357,0.0,-999.0,12,-99.99,,,0.00,weatherlink.com 1.10,2013-02-23 21:04:00,
2013-02-23 14:19:00,70.7,16.0,29.55,North,357,2.0,-999.0,12,-99.99,,,0.00,weatherlink.com 1.10,2013-02-23 21:19:00,
2013-02-23 14:34:00,70.1,15.0,29.54,North,357,7.0,-999.0,12,-99.99,,,0.00,weatherlink.com 1.10,2013-02-23 21:34:00,
2013-02-23 14:49:00,70.1,15.0,29.53,North,359,4.0,-999.0,12,-99.99,,,0.00,weatherlink.com 1.10,2013-02-23 21:49:00,
2013-02-23 15:04:00,70.5,15.0,29.52,NNW,329,2.0,-999.0,12,-99.99,,,0.00,weatherlink.com 1.10,2013-02-23 22:04:00,
2013-02-23 15:19:00,71.0,16.0,29.51,North,359,8.0,-999.0,12,-99.99,,,0.00,weatherlink.com 1.10,2013-02-23 22:19:00,
2013-02-23 15:34:00,70.7,16.0,29.50,North,359,7.0,-999.0,12,-99.99,,,0.00,weatherlink.com 1.10,2013-02-23 22:34:00,
2013-02-23 15:49:00,70.7,16.0,29.49,North,354,9.0,-999.0,12,-99.99,,,0.00,weatherlink.com 1.10,2013-02-23 22:49:00,
2013-02-23 16:04:00,70.5,15.0,29.48,North,357,8.0,-999.0,12,-99.99,,,0.00,weatherlink.com 1.10,2013-02-23 23:04:00,
2013-02-23 16:19:00,70.7,16.0,29.48,North,359,12.0,-999.0,12,-99.99,,,0.00,weatherlink.com 1.10,2013-02-23 23:19:00,
2013-02-23 16:34:00,70.7,16.0,29.48,North,359,3.0,-999.0,12,-99.99,,,0.00,weatherlink.com 1.10,2013-02-23 23:34:00,
2013-02-23 16:49:00,70.3,15.0,29.46,North,359,6.0,-999.0,12,-99.99,,,0.00,weatherlink.com 1.10,2013-02-23 23:49:00,
2013-02-23 17:04:00,70.3,15.0,29.45,North,357,2.0,-999.0,12,-99.99,,,0.00,weatherlink.com 1.10,2013-02-24 00:04:00,
2013-02-23 17:19:00,70.1,17.0,29.45,North,357,4.0,-999.0,13,-99.99,,,0.00,weatherlink.com 1.10,2013-02-24 00:19:00,
2013-02-23 17:34:00,70.0,17.0,29.44,North,357,3.0,-999.0,13,-99.99,,,0.00,weatherlink.com 1.10,2013-02-24 00:34:00,
2013-02-23 17:49:00,69.3,18.0,29.44,North,357,2.0,-999.0,14,-99.99,,,0.00,weatherlink.com 1.10,2013-02-24 00:49:00,
2013-02-23 18:04:00,68.8,18.0,29.44,North,359,5.0,-999.0,14,-99.99,,,0.00,weatherlink.com 1.10,2013-02-24 01:04:00,
2013-02-23 18:19:00,67.8,18.0,29.44,North,359,2.0,-999.0,15,-99.99,,,0.00,weatherlink.com 1.10,2013-02-24 01:19:00,
2013-02-23 18:34:00,65.9,22.0,29.45,North,359,7.0,-999.0,19,-99.99,,,0.00,weatherlink.com 1.10,2013-02-24 01:34:00,
2013-02-23 18:49:00,64.6,21.0,29.45,North,359,2.0,-999.0,19,-99.99,,,0.00,weatherlink.com 1.10,2013-02-24 01:49:00,
2013-02-23 19:04:00,63.5,20.0,29.45,North,359,6.0,-999.0,19,-99.99,,,0.00,weatherlink.com 1.10,2013-02-24 02:04:00,
2013-02-23 19:19:00,62.7,21.0,29.45,North,359,3.0,-999.0,20,-99.99,,,0.00,weatherlink.com 1.10,2013-02-24 02:19:00,
2013-02-23 19:34:00,62.3,21.0,29.46,North,359,5.0,-999.0,20,-99.99,,,0.00,weatherlink.com 1.10,2013-02-24 02:34:00,
2013-02-23 19:49:00,61.9,21.0,29.46,North,359,5.0,-999.0,21,-99.99,,,0.00,weatherlink.com 1.10,2013-02-24 02:49:00,
2013-02-23 20:04:00,61.2,22.0,29.45,North,359,5.0,-999.0,22,-99.99,,,0.00,weatherlink.com 1.10,2013-02-24 03:04:00,
2013-02-23 20:19:00,60.7,20.0,29.45,North,359,5.0,-999.0,21,-99.99,,,0.00,weatherlink.com 1.10,2013-02-24 03:19:00,
2013-02-23 20:34:00,60.6,19.0,29.46,North,359,2.0,-999.0,20,-99.99,,,0.00,weatherlink.com 1.10,2013-02-24 03:34:00,
2013-02-23 20:49:00,60.0,20.0,29.47,North,357,3.0,-999.0,21,-99.99,,,0.00,weatherlink.com 1.10,2013-02-24 03:49:00,
2013-02-23 21:04:00,59.3,20.0,29.47,North,357,4.0,-999.0,22,-99.99,,,0.00,weatherlink.com 1.10,2013-02-24 04:04:00,
2013-02-23 21:19:00,58.7,20.0,29.47,North,357,2.0,-999.0,22,-99.99,,,0.00,weatherlink.com 1.10,2013-02-24 04:19:00,
2013-02-23 21:34:00,58.7,19.0,29.47,North,357,1.0,-999.0,21,-99.99,,,0.00,weatherlink.com 1.10,2013-02-24 04:34:00,
2013-02-23 21:49:00,58.5,18.0,29.48,North,359,2.0,-999.0,21,-99.99,,,0.00,weatherlink.com 1.10,2013-02-24 04:49:00,
2013-02-23 22:04:00,57.9,19.0,29.48,North,359,6.0,-999.0,22,-99.99,,,0.00,weatherlink.com 1.10,2013-02-24 05:04:00,
2013-02-23 22:19:00,57.2,20.0,29.48,North,359,2.0,-999.0,23,-99.99,,,0.00,weatherlink.com 1.10,2013-02-24 05:19:00,
2013-02-23 22:34:00,57.2,18.0,29.49,North,359,5.0,-999.0,22,-99.99,,,0.00,weatherlink.com 1.10,2013-02-24 05:34:00,
2013-02-23 22:49:00,56.9,19.0,29.50,North,359,1.0,-999.0,23,-99.99,,,0.00,weatherlink.com 1.10,2013-02-24 05:49:00,
2013-02-23 23:04:00,56.7,19.0,29.50,North,359,3.0,-999.0,23,-99.99,,,0.00,weatherlink.com 1.10,2013-02-24 06:04:00,
2013-02-23 23:19:00,56.4,18.0,29.50,North,359,0.0,-999.0,22,-99.99,,,0.00,weatherlink.com 1.10,2013-02-24 06:19:00,
2013-02-23 23:34:00,55.2,19.0,29.51,North,359,0.0,-999.0,24,-99.99,,,0.00,weatherlink.com 1.10,2013-02-24 06:34:00,
2013-02-23 23:50:00,55.6,18.0,29.51,North,359,0.0,-999.0,23,-99.99,,,0.00,weatherlink.com 1.10,2013-02-24 06:50:00,